sensor_id;sensor_type;location;lat;lon;timestamp;temperature;humidity
55211;DHT22;41082;52.822;6.666;2023-02-26T00:02:15;1.20;99.90
55211;DHT22;41082;52.822;6.666;2023-02-26T00:04:41;1.20;99.90
55211;DHT22;41082;52.822;6.666;2023-02-26T00:07:07;1.20;99.90
55211;DHT22;41082;52.822;6.666;2023-02-26T00:09:32;1.10;99.90
55211;DHT22;41082;52.822;6.666;2023-02-26T00:11:59;1.10;99.90
55211;DHT22;41082;52.822;6.666;2023-02-26T00:14:26;1.10;99.90
55211;DHT22;41082;52.822;6.666;2023-02-26T00:17:32;1.10;99.90
55211;DHT22;41082;52.822;6.666;2023-02-26T00:20:00;1.00;99.90
55211;DHT22;41082;52.822;6.666;2023-02-26T00:22:25;1.00;99.90
55211;DHT22;41082;52.822;6.666;2023-02-26T00:24:52;1.10;99.90
55211;DHT22;41082;52.822;6.666;2023-02-26T00:27:17;1.10;99.90
55211;DHT22;41082;52.822;6.666;2023-02-26T00:29:43;1.00;99.90
55211;DHT22;41082;52.822;6.666;2023-02-26T00:32:10;1.00;99.90
55211;DHT22;41082;52.822;6.666;2023-02-26T00:34:36;1.00;99.90
55211;DHT22;41082;52.822;6.666;2023-02-26T00:42:36;0.90;99.90
55211;DHT22;41082;52.822;6.666;2023-02-26T00:45:03;0.90;99.90
55211;DHT22;41082;52.822;6.666;2023-02-26T00:47:39;0.90;99.90
55211;DHT22;41082;52.822;6.666;2023-02-26T00:53:16;0.80;99.90
55211;DHT22;41082;52.822;6.666;2023-02-26T00:55:45;0.80;99.90
55211;DHT22;41082;52.822;6.666;2023-02-26T00:58:10;0.80;99.90
55211;DHT22;41082;52.822;6.666;2023-02-26T01:00:36;0.80;99.90
55211;DHT22;41082;52.822;6.666;2023-02-26T01:03:02;0.80;99.90
55211;DHT22;41082;52.822;6.666;2023-02-26T01:05:28;0.70;99.90
55211;DHT22;41082;52.822;6.666;2023-02-26T01:10:37;0.70;99.90
55211;DHT22;41082;52.822;6.666;2023-02-26T01:13:03;0.70;99.90
55211;DHT22;41082;52.822;6.666;2023-02-26T01:15:29;0.70;99.90
55211;DHT22;41082;52.822;6.666;2023-02-26T01:18:12;0.70;99.90
55211;DHT22;41082;52.822;6.666;2023-02-26T01:20:52;0.70;99.90
55211;DHT22;41082;52.822;6.666;2023-02-26T01:23:25;0.70;99.90
55211;DHT22;41082;52.822;6.666;2023-02-26T01:26:01;0.60;99.90
55211;DHT22;41082;52.822;6.666;2023-02-26T01:28:28;0.60;99.90
55211;DHT22;41082;52.822;6.666;2023-02-26T01:30:58;0.60;99.90
55211;DHT22;41082;52.822;6.666;2023-02-26T01:33:34;0.50;99.90
55211;DHT22;41082;52.822;6.666;2023-02-26T01:39:07;0.50;99.90
55211;DHT22;41082;52.822;6.666;2023-02-26T01:41:39;0.60;99.90
55211;DHT22;41082;52.822;6.666;2023-02-26T01:49:24;0.50;99.90
55211;DHT22;41082;52.822;6.666;2023-02-26T01:51:56;0.50;99.90
55211;DHT22;41082;52.822;6.666;2023-02-26T01:54:24;0.50;99.90
55211;DHT22;41082;52.822;6.666;2023-02-26T01:57:08;0.50;99.90
55211;DHT22;41082;52.822;6.666;2023-02-26T01:59:41;0.50;99.90
55211;DHT22;41082;52.822;6.666;2023-02-26T02:02:09;0.40;99.90
55211;DHT22;41082;52.822;6.666;2023-02-26T02:04:36;0.40;99.90
55211;DHT22;41082;52.822;6.666;2023-02-26T02:07:03;0.40;99.90
55211;DHT22;41082;52.822;6.666;2023-02-26T02:09:29;0.40;99.90
55211;DHT22;41082;52.822;6.666;2023-02-26T02:15:12;0.40;99.90
55211;DHT22;41082;52.822;6.666;2023-02-26T02:28:53;0.40;99.90
55211;DHT22;41082;52.822;6.666;2023-02-26T02:31:43;0.30;99.90
55211;DHT22;41082;52.822;6.666;2023-02-26T02:34:15;0.30;99.90
55211;DHT22;41082;52.822;6.666;2023-02-26T02:36:50;0.30;99.90
55211;DHT22;41082;52.822;6.666;2023-02-26T02:39:28;0.30;99.90
55211;DHT22;41082;52.822;6.666;2023-02-26T02:44:25;0.20;99.90
55211;DHT22;41082;52.822;6.666;2023-02-26T02:46:55;0.30;99.90
55211;DHT22;41082;52.822;6.666;2023-02-26T02:49:33;0.30;99.90
55211;DHT22;41082;52.822;6.666;2023-02-26T02:52:15;0.20;99.90
55211;DHT22;41082;52.822;6.666;2023-02-26T02:55:10;0.20;99.90
55211;DHT22;41082;52.822;6.666;2023-02-26T02:57:49;0.20;99.90
55211;DHT22;41082;52.822;6.666;2023-02-26T03:00:17;0.20;99.90
55211;DHT22;41082;52.822;6.666;2023-02-26T03:03:05;0.20;99.90
55211;DHT22;41082;52.822;6.666;2023-02-26T03:05:33;0.20;99.90
55211;DHT22;41082;52.822;6.666;2023-02-26T03:08:09;0.20;99.90
55211;DHT22;41082;52.822;6.666;2023-02-26T03:10:35;0.10;99.90
55211;DHT22;41082;52.822;6.666;2023-02-26T03:13:01;0.10;99.90
55211;DHT22;41082;52.822;6.666;2023-02-26T03:15:54;0.20;99.90
55211;DHT22;41082;52.822;6.666;2023-02-26T03:18:42;0.10;99.90
55211;DHT22;41082;52.822;6.666;2023-02-26T03:21:33;0.10;99.90
55211;DHT22;41082;52.822;6.666;2023-02-26T03:27:19;0.10;99.90
55211;DHT22;41082;52.822;6.666;2023-02-26T03:29:51;0.10;99.90
55211;DHT22;41082;52.822;6.666;2023-02-26T03:32:20;0.00;99.90
55211;DHT22;41082;52.822;6.666;2023-02-26T03:34:54;0.00;99.90
55211;DHT22;41082;52.822;6.666;2023-02-26T03:37:22;0.00;99.90
55211;DHT22;41082;52.822;6.666;2023-02-26T03:39:54;0.00;99.90
55211;DHT22;41082;52.822;6.666;2023-02-26T03:42:30;0.00;99.90
55211;DHT22;41082;52.822;6.666;2023-02-26T03:45:27;0.00;99.90
55211;DHT22;41082;52.822;6.666;2023-02-26T03:47:56;0.00;99.90
55211;DHT22;41082;52.822;6.666;2023-02-26T03:50:36;0.00;99.90
55211;DHT22;41082;52.822;6.666;2023-02-26T03:53:06;-0.10;99.90
55211;DHT22;41082;52.822;6.666;2023-02-26T03:55:45;-0.10;99.90
55211;DHT22;41082;52.822;6.666;2023-02-26T03:58:12;-0.10;99.90
55211;DHT22;41082;52.822;6.666;2023-02-26T04:00:40;-0.10;99.90
55211;DHT22;41082;52.822;6.666;2023-02-26T04:03:22;-0.10;99.90
55211;DHT22;41082;52.822;6.666;2023-02-26T04:05:50;-0.10;99.90
55211;DHT22;41082;52.822;6.666;2023-02-26T04:08:17;-0.10;99.90
55211;DHT22;41082;52.822;6.666;2023-02-26T04:10:50;-0.10;99.90
55211;DHT22;41082;52.822;6.666;2023-02-26T04:13:17;-0.20;99.90
55211;DHT22;41082;52.822;6.666;2023-02-26T04:15:42;-0.10;99.90
55211;DHT22;41082;52.822;6.666;2023-02-26T04:18:08;-0.20;99.90
55211;DHT22;41082;52.822;6.666;2023-02-26T04:20:33;-0.20;99.90
55211;DHT22;41082;52.822;6.666;2023-02-26T04:22:59;-0.20;99.90
55211;DHT22;41082;52.822;6.666;2023-02-26T04:25:25;-0.20;99.90
55211;DHT22;41082;52.822;6.666;2023-02-26T04:27:50;-0.20;99.90
55211;DHT22;41082;52.822;6.666;2023-02-26T04:30:16;-0.20;99.90
55211;DHT22;41082;52.822;6.666;2023-02-26T04:32:41;-0.20;99.90
55211;DHT22;41082;52.822;6.666;2023-02-26T04:35:07;-0.20;99.90
55211;DHT22;41082;52.822;6.666;2023-02-26T04:37:33;-0.20;99.90
55211;DHT22;41082;52.822;6.666;2023-02-26T04:39:59;-0.20;99.90
55211;DHT22;41082;52.822;6.666;2023-02-26T04:42:24;-0.20;99.90
55211;DHT22;41082;52.822;6.666;2023-02-26T04:44:50;-0.20;99.90
55211;DHT22;41082;52.822;6.666;2023-02-26T04:47:15;-0.30;99.90
55211;DHT22;41082;52.822;6.666;2023-02-26T04:49:41;-0.30;99.90
55211;DHT22;41082;52.822;6.666;2023-02-26T04:52:06;-0.30;99.90
55211;DHT22;41082;52.822;6.666;2023-02-26T04:54:32;-0.30;99.90
55211;DHT22;41082;52.822;6.666;2023-02-26T04:56:57;-0.30;99.90
55211;DHT22;41082;52.822;6.666;2023-02-26T04:59:23;-0.30;99.90
55211;DHT22;41082;52.822;6.666;2023-02-26T05:01:48;-0.30;99.90
55211;DHT22;41082;52.822;6.666;2023-02-26T05:04:14;-0.30;99.90
55211;DHT22;41082;52.822;6.666;2023-02-26T05:06:40;-0.30;99.90
55211;DHT22;41082;52.822;6.666;2023-02-26T05:09:06;-0.30;99.90
55211;DHT22;41082;52.822;6.666;2023-02-26T05:11:32;-0.30;99.90
55211;DHT22;41082;52.822;6.666;2023-02-26T05:13:57;-0.30;99.90
55211;DHT22;41082;52.822;6.666;2023-02-26T05:16:23;-0.40;99.90
55211;DHT22;41082;52.822;6.666;2023-02-26T05:18:48;-0.30;99.90
55211;DHT22;41082;52.822;6.666;2023-02-26T05:21:14;-0.40;99.90
55211;DHT22;41082;52.822;6.666;2023-02-26T05:23:39;-0.30;99.90
55211;DHT22;41082;52.822;6.666;2023-02-26T05:26:05;-0.40;99.90
55211;DHT22;41082;52.822;6.666;2023-02-26T05:28:31;-0.30;99.90
55211;DHT22;41082;52.822;6.666;2023-02-26T05:30:58;-0.30;99.90
55211;DHT22;41082;52.822;6.666;2023-02-26T05:33:24;-0.40;99.90
55211;DHT22;41082;52.822;6.666;2023-02-26T05:35:50;-0.40;99.90
55211;DHT22;41082;52.822;6.666;2023-02-26T05:38:15;-0.40;99.90
55211;DHT22;41082;52.822;6.666;2023-02-26T05:40:41;-0.40;99.90
55211;DHT22;41082;52.822;6.666;2023-02-26T05:43:07;-0.40;99.90
55211;DHT22;41082;52.822;6.666;2023-02-26T05:45:33;-0.40;99.90
55211;DHT22;41082;52.822;6.666;2023-02-26T05:47:59;-0.40;99.90
55211;DHT22;41082;52.822;6.666;2023-02-26T05:50:25;-0.40;99.90
55211;DHT22;41082;52.822;6.666;2023-02-26T05:52:51;-0.40;99.90
55211;DHT22;41082;52.822;6.666;2023-02-26T05:55:17;-0.40;99.90
55211;DHT22;41082;52.822;6.666;2023-02-26T05:57:43;-0.40;99.90
55211;DHT22;41082;52.822;6.666;2023-02-26T06:00:09;-0.50;99.90
55211;DHT22;41082;52.822;6.666;2023-02-26T06:02:35;-0.50;99.90
55211;DHT22;41082;52.822;6.666;2023-02-26T06:05:00;-0.50;99.90
55211;DHT22;41082;52.822;6.666;2023-02-26T06:07:26;-0.50;99.90
55211;DHT22;41082;52.822;6.666;2023-02-26T06:09:52;-0.50;99.90
55211;DHT22;41082;52.822;6.666;2023-02-26T06:12:17;-0.50;99.90
55211;DHT22;41082;52.822;6.666;2023-02-26T06:14:43;-0.50;99.90
55211;DHT22;41082;52.822;6.666;2023-02-26T06:17:08;-0.50;99.90
55211;DHT22;41082;52.822;6.666;2023-02-26T06:19:34;-0.50;99.90
55211;DHT22;41082;52.822;6.666;2023-02-26T06:21:59;-0.50;99.90
55211;DHT22;41082;52.822;6.666;2023-02-26T06:24:25;-0.50;99.90
55211;DHT22;41082;52.822;6.666;2023-02-26T06:26:51;-0.50;99.90
55211;DHT22;41082;52.822;6.666;2023-02-26T06:29:17;-0.50;99.90
55211;DHT22;41082;52.822;6.666;2023-02-26T06:31:44;-0.60;99.90
55211;DHT22;41082;52.822;6.666;2023-02-26T06:34:10;-0.50;99.90
55211;DHT22;41082;52.822;6.666;2023-02-26T06:36:36;-0.50;99.90
55211;DHT22;41082;52.822;6.666;2023-02-26T06:39:02;-0.50;99.90
55211;DHT22;41082;52.822;6.666;2023-02-26T06:41:27;-0.60;99.90
55211;DHT22;41082;52.822;6.666;2023-02-26T06:43:53;-0.60;99.90
55211;DHT22;41082;52.822;6.666;2023-02-26T06:46:18;-0.60;99.90
55211;DHT22;41082;52.822;6.666;2023-02-26T06:48:44;-0.50;99.90
55211;DHT22;41082;52.822;6.666;2023-02-26T06:51:10;-0.50;99.90
55211;DHT22;41082;52.822;6.666;2023-02-26T06:53:35;-0.50;99.90
55211;DHT22;41082;52.822;6.666;2023-02-26T06:56:01;-0.50;99.90
55211;DHT22;41082;52.822;6.666;2023-02-26T06:58:27;-0.40;99.90
55211;DHT22;41082;52.822;6.666;2023-02-26T07:00:53;-0.40;99.90
55211;DHT22;41082;52.822;6.666;2023-02-26T07:03:18;-0.40;99.90
55211;DHT22;41082;52.822;6.666;2023-02-26T07:05:45;-0.40;99.90
55211;DHT22;41082;52.822;6.666;2023-02-26T07:08:10;-0.40;99.90
55211;DHT22;41082;52.822;6.666;2023-02-26T07:10:36;-0.40;99.90
55211;DHT22;41082;52.822;6.666;2023-02-26T07:13:02;-0.30;99.90
55211;DHT22;41082;52.822;6.666;2023-02-26T07:15:28;-0.30;99.90
55211;DHT22;41082;52.822;6.666;2023-02-26T07:17:54;-0.30;99.90
55211;DHT22;41082;52.822;6.666;2023-02-26T07:20:20;-0.20;99.90
55211;DHT22;41082;52.822;6.666;2023-02-26T07:22:47;-0.20;99.90
55211;DHT22;41082;52.822;6.666;2023-02-26T07:25:13;-0.10;99.90
55211;DHT22;41082;52.822;6.666;2023-02-26T07:27:39;-0.10;99.90
55211;DHT22;41082;52.822;6.666;2023-02-26T07:30:05;0.00;99.90
55211;DHT22;41082;52.822;6.666;2023-02-26T07:32:31;0.00;99.90
55211;DHT22;41082;52.822;6.666;2023-02-26T07:34:57;0.10;99.90
55211;DHT22;41082;52.822;6.666;2023-02-26T07:37:23;0.10;99.90
55211;DHT22;41082;52.822;6.666;2023-02-26T07:39:49;0.20;99.90
55211;DHT22;41082;52.822;6.666;2023-02-26T07:42:15;0.20;99.90
55211;DHT22;41082;52.822;6.666;2023-02-26T07:44:41;0.30;99.90
55211;DHT22;41082;52.822;6.666;2023-02-26T07:47:07;0.40;99.90
55211;DHT22;41082;52.822;6.666;2023-02-26T07:49:33;0.50;99.90
55211;DHT22;41082;52.822;6.666;2023-02-26T07:51:59;0.60;99.90
55211;DHT22;41082;52.822;6.666;2023-02-26T07:54:25;0.60;99.90
55211;DHT22;41082;52.822;6.666;2023-02-26T07:56:50;0.70;99.90
55211;DHT22;41082;52.822;6.666;2023-02-26T07:59:16;0.70;99.90
55211;DHT22;41082;52.822;6.666;2023-02-26T08:01:42;0.80;99.90
55211;DHT22;41082;52.822;6.666;2023-02-26T08:04:07;0.90;99.90
55211;DHT22;41082;52.822;6.666;2023-02-26T08:06:33;1.00;99.90
55211;DHT22;41082;52.822;6.666;2023-02-26T08:09:00;1.10;99.90
55211;DHT22;41082;52.822;6.666;2023-02-26T08:11:26;1.20;99.90
55211;DHT22;41082;52.822;6.666;2023-02-26T08:13:51;1.20;99.90
55211;DHT22;41082;52.822;6.666;2023-02-26T08:16:17;1.30;99.90
55211;DHT22;41082;52.822;6.666;2023-02-26T08:18:42;1.40;99.90
55211;DHT22;41082;52.822;6.666;2023-02-26T08:21:08;1.50;99.90
55211;DHT22;41082;52.822;6.666;2023-02-26T08:23:35;1.60;99.90
55211;DHT22;41082;52.822;6.666;2023-02-26T08:26:05;1.60;99.90
55211;DHT22;41082;52.822;6.666;2023-02-26T08:28:32;1.70;99.90
55211;DHT22;41082;52.822;6.666;2023-02-26T08:30:58;1.80;99.90
55211;DHT22;41082;52.822;6.666;2023-02-26T08:33:24;1.80;99.90
55211;DHT22;41082;52.822;6.666;2023-02-26T08:35:50;1.90;99.90
55211;DHT22;41082;52.822;6.666;2023-02-26T08:38:16;1.90;99.90
55211;DHT22;41082;52.822;6.666;2023-02-26T08:40:42;2.00;99.90
55211;DHT22;41082;52.822;6.666;2023-02-26T08:43:08;2.10;99.90
55211;DHT22;41082;52.822;6.666;2023-02-26T08:45:36;2.10;99.90
55211;DHT22;41082;52.822;6.666;2023-02-26T08:48:02;2.20;99.90
55211;DHT22;41082;52.822;6.666;2023-02-26T08:50:27;2.20;99.90
55211;DHT22;41082;52.822;6.666;2023-02-26T08:52:53;2.30;99.90
55211;DHT22;41082;52.822;6.666;2023-02-26T08:55:19;2.40;99.90
55211;DHT22;41082;52.822;6.666;2023-02-26T08:57:45;2.40;99.90
55211;DHT22;41082;52.822;6.666;2023-02-26T09:00:10;2.50;99.90
55211;DHT22;41082;52.822;6.666;2023-02-26T09:02:37;2.50;99.90
55211;DHT22;41082;52.822;6.666;2023-02-26T09:05:04;2.60;99.90
55211;DHT22;41082;52.822;6.666;2023-02-26T09:07:30;2.60;99.90
55211;DHT22;41082;52.822;6.666;2023-02-26T09:09:55;2.70;99.90
55211;DHT22;41082;52.822;6.666;2023-02-26T09:12:21;2.70;99.90
55211;DHT22;41082;52.822;6.666;2023-02-26T09:14:47;2.70;99.90
55211;DHT22;41082;52.822;6.666;2023-02-26T09:17:13;2.80;99.90
55211;DHT22;41082;52.822;6.666;2023-02-26T09:19:38;2.90;99.90
55211;DHT22;41082;52.822;6.666;2023-02-26T09:22:04;2.90;99.90
55211;DHT22;41082;52.822;6.666;2023-02-26T09:24:30;3.00;99.90
55211;DHT22;41082;52.822;6.666;2023-02-26T09:26:55;3.00;99.90
55211;DHT22;41082;52.822;6.666;2023-02-26T09:29:21;3.10;99.90
55211;DHT22;41082;52.822;6.666;2023-02-26T09:31:46;3.10;99.90
55211;DHT22;41082;52.822;6.666;2023-02-26T09:34:12;3.10;99.90
55211;DHT22;41082;52.822;6.666;2023-02-26T09:36:38;3.20;99.90
55211;DHT22;41082;52.822;6.666;2023-02-26T09:39:05;3.20;99.90
55211;DHT22;41082;52.822;6.666;2023-02-26T09:41:35;3.30;99.90
55211;DHT22;41082;52.822;6.666;2023-02-26T09:44:09;3.30;99.90
55211;DHT22;41082;52.822;6.666;2023-02-26T09:52:20;3.40;99.90
55211;DHT22;41082;52.822;6.666;2023-02-26T09:55:04;3.50;99.90
55211;DHT22;41082;52.822;6.666;2023-02-26T09:57:34;3.60;99.90
55211;DHT22;41082;52.822;6.666;2023-02-26T10:00:00;3.60;99.90
55211;DHT22;41082;52.822;6.666;2023-02-26T10:05:38;3.70;99.90
55211;DHT22;41082;52.822;6.666;2023-02-26T10:08:16;3.70;99.90
55211;DHT22;41082;52.822;6.666;2023-02-26T10:11:08;3.80;99.90
55211;DHT22;41082;52.822;6.666;2023-02-26T10:13:58;3.80;99.90
55211;DHT22;41082;52.822;6.666;2023-02-26T10:16:29;3.80;99.90
55211;DHT22;41082;52.822;6.666;2023-02-26T10:19:05;3.90;99.90
55211;DHT22;41082;52.822;6.666;2023-02-26T10:21:45;4.00;99.90
55211;DHT22;41082;52.822;6.666;2023-02-26T10:26:45;4.00;99.90
55211;DHT22;41082;52.822;6.666;2023-02-26T10:32:02;4.10;99.90
55211;DHT22;41082;52.822;6.666;2023-02-26T10:39:49;4.20;99.90
55211;DHT22;41082;52.822;6.666;2023-02-26T10:42:30;4.30;99.90
55211;DHT22;41082;52.822;6.666;2023-02-26T10:50:28;4.40;99.90
55211;DHT22;41082;52.822;6.666;2023-02-26T10:52:54;4.40;99.90
55211;DHT22;41082;52.822;6.666;2023-02-26T10:55:43;4.50;99.90
55211;DHT22;41082;52.822;6.666;2023-02-26T10:58:16;4.50;99.90
55211;DHT22;41082;52.822;6.666;2023-02-26T11:00:44;4.50;99.90
55211;DHT22;41082;52.822;6.666;2023-02-26T11:03:48;4.50;99.90
55211;DHT22;41082;52.822;6.666;2023-02-26T11:06:39;4.50;99.90
55211;DHT22;41082;52.822;6.666;2023-02-26T11:12:04;4.60;99.90
55211;DHT22;41082;52.822;6.666;2023-02-26T11:14:31;4.70;99.90
55211;DHT22;41082;52.822;6.666;2023-02-26T11:17:00;4.80;99.90
55211;DHT22;41082;52.822;6.666;2023-02-26T11:19:37;4.80;99.90
55211;DHT22;41082;52.822;6.666;2023-02-26T11:22:04;4.90;99.90
55211;DHT22;41082;52.822;6.666;2023-02-26T11:24:36;4.90;99.90
55211;DHT22;41082;52.822;6.666;2023-02-26T11:27:18;5.00;99.90
55211;DHT22;41082;52.822;6.666;2023-02-26T11:29:53;5.00;99.90
55211;DHT22;41082;52.822;6.666;2023-02-26T11:32:30;5.00;99.90
55211;DHT22;41082;52.822;6.666;2023-02-26T11:34:56;5.00;99.90
55211;DHT22;41082;52.822;6.666;2023-02-26T11:37:35;5.00;99.90
55211;DHT22;41082;52.822;6.666;2023-02-26T11:40:06;5.00;99.90
55211;DHT22;41082;52.822;6.666;2023-02-26T11:42:44;5.00;99.90
55211;DHT22;41082;52.822;6.666;2023-02-26T11:45:17;5.00;99.90
55211;DHT22;41082;52.822;6.666;2023-02-26T11:47:44;5.10;99.90
55211;DHT22;41082;52.822;6.666;2023-02-26T11:50:17;5.10;99.90
55211;DHT22;41082;52.822;6.666;2023-02-26T11:52:45;5.10;99.90
55211;DHT22;41082;52.822;6.666;2023-02-26T11:55:28;5.20;99.90
55211;DHT22;41082;52.822;6.666;2023-02-26T11:57:54;5.20;99.90
55211;DHT22;41082;52.822;6.666;2023-02-26T12:00:32;5.20;99.80
55211;DHT22;41082;52.822;6.666;2023-02-26T12:03:07;5.30;99.90
55211;DHT22;41082;52.822;6.666;2023-02-26T12:05:39;5.30;99.40
55211;DHT22;41082;52.822;6.666;2023-02-26T12:08:23;5.30;99.30
55211;DHT22;41082;52.822;6.666;2023-02-26T12:13:26;5.30;99.50
55211;DHT22;41082;52.822;6.666;2023-02-26T12:21:21;5.40;99.50
55211;DHT22;41082;52.822;6.666;2023-02-26T12:24:02;5.40;99.00
55211;DHT22;41082;52.822;6.666;2023-02-26T12:26:49;5.50;99.60
55211;DHT22;41082;52.822;6.666;2023-02-26T12:29:47;5.60;99.50
55211;DHT22;41082;52.822;6.666;2023-02-26T12:35:17;5.80;99.90
55211;DHT22;41082;52.822;6.666;2023-02-26T12:37:59;5.90;98.60
55211;DHT22;41082;52.822;6.666;2023-02-26T12:52:30;5.80;96.90
55211;DHT22;41082;52.822;6.666;2023-02-26T12:54:36;5.70;96.80
55211;DHT22;41082;52.822;6.666;2023-02-26T12:57:35;5.70;97.20
55211;DHT22;41082;52.822;6.666;2023-02-26T13:03:21;5.60;97.00
55211;DHT22;41082;52.822;6.666;2023-02-26T13:06:17;5.60;97.60
55211;DHT22;41082;52.822;6.666;2023-02-26T13:17:18;5.70;97.30
55211;DHT22;41082;52.822;6.666;2023-02-26T13:22:37;5.70;97.30
55211;DHT22;41082;52.822;6.666;2023-02-26T13:25:32;5.80;97.50
55211;DHT22;41082;52.822;6.666;2023-02-26T13:28:03;5.80;97.10
55211;DHT22;41082;52.822;6.666;2023-02-26T13:30:38;5.90;96.80
55211;DHT22;41082;52.822;6.666;2023-02-26T13:33:16;5.80;97.00
55211;DHT22;41082;52.822;6.666;2023-02-26T13:35:44;5.80;96.90
55211;DHT22;41082;52.822;6.666;2023-02-26T13:38:32;5.90;96.50
55211;DHT22;41082;52.822;6.666;2023-02-26T13:41:21;5.90;95.80
55211;DHT22;41082;52.822;6.666;2023-02-26T13:49:38;5.90;97.00
55211;DHT22;41082;52.822;6.666;2023-02-26T13:52:28;5.90;95.00
55211;DHT22;41082;52.822;6.666;2023-02-26T13:54:54;5.80;93.80
55211;DHT22;41082;52.822;6.666;2023-02-26T13:57:44;5.70;94.60
55211;DHT22;41082;52.822;6.666;2023-02-26T14:00:26;5.70;95.50
55211;DHT22;41082;52.822;6.666;2023-02-26T14:02:56;5.70;96.20
55211;DHT22;41082;52.822;6.666;2023-02-26T14:05:32;5.70;96.50
55211;DHT22;41082;52.822;6.666;2023-02-26T14:08:09;5.70;96.90
55211;DHT22;41082;52.822;6.666;2023-02-26T14:10:57;5.80;97.00
55211;DHT22;41082;52.822;6.666;2023-02-26T14:16:28;5.90;97.10
55211;DHT22;41082;52.822;6.666;2023-02-26T14:21:49;5.80;96.50
55211;DHT22;41082;52.822;6.666;2023-02-26T14:24:22;5.80;96.20
55211;DHT22;41082;52.822;6.666;2023-02-26T14:34:54;5.80;96.00
55211;DHT22;41082;52.822;6.666;2023-02-26T14:37:25;5.80;95.80
55211;DHT22;41082;52.822;6.666;2023-02-26T14:39:54;5.80;95.90
55211;DHT22;41082;52.822;6.666;2023-02-26T14:47:28;6.00;96.00
55211;DHT22;41082;52.822;6.666;2023-02-26T14:49:54;6.00;95.90
55211;DHT22;41082;52.822;6.666;2023-02-26T14:52:38;5.90;95.00
55211;DHT22;41082;52.822;6.666;2023-02-26T14:55:10;5.70;94.90
55211;DHT22;41082;52.822;6.666;2023-02-26T15:00:49;5.50;95.60
55211;DHT22;41082;52.822;6.666;2023-02-26T15:06:13;5.60;96.60
55211;DHT22;41082;52.822;6.666;2023-02-26T15:17:08;5.50;97.50
55211;DHT22;41082;52.822;6.666;2023-02-26T15:22:35;5.40;97.80
55211;DHT22;41082;52.822;6.666;2023-02-26T15:25:11;5.40;97.60
55211;DHT22;41082;52.822;6.666;2023-02-26T15:27:38;5.40;97.60
55211;DHT22;41082;52.822;6.666;2023-02-26T15:30:04;5.30;97.60
55211;DHT22;41082;52.822;6.666;2023-02-26T15:32:34;5.30;97.90
55211;DHT22;41082;52.822;6.666;2023-02-26T15:35:05;5.30;98.00
55211;DHT22;41082;52.822;6.666;2023-02-26T15:37:31;5.30;97.80
55211;DHT22;41082;52.822;6.666;2023-02-26T15:39:58;5.20;97.30
55211;DHT22;41082;52.822;6.666;2023-02-26T15:42:29;5.10;97.50
55211;DHT22;41082;52.822;6.666;2023-02-26T15:44:59;5.10;97.90
55211;DHT22;41082;52.822;6.666;2023-02-26T15:47:27;5.10;98.00
55211;DHT22;41082;52.822;6.666;2023-02-26T15:49:54;5.00;98.10
55211;DHT22;41082;52.822;6.666;2023-02-26T15:52:22;5.00;98.00
55211;DHT22;41082;52.822;6.666;2023-02-26T15:54:52;5.00;97.90
55211;DHT22;41082;52.822;6.666;2023-02-26T15:57:19;5.00;98.20
55211;DHT22;41082;52.822;6.666;2023-02-26T15:59:52;5.10;98.40
55211;DHT22;41082;52.822;6.666;2023-02-26T16:02:29;5.10;98.40
55211;DHT22;41082;52.822;6.666;2023-02-26T16:04:55;5.00;97.70
55211;DHT22;41082;52.822;6.666;2023-02-26T16:07:21;4.90;98.10
55211;DHT22;41082;52.822;6.666;2023-02-26T16:09:52;4.90;98.30
55211;DHT22;41082;52.822;6.666;2023-02-26T16:12:37;4.90;98.40
55211;DHT22;41082;52.822;6.666;2023-02-26T16:15:12;4.90;98.60
55211;DHT22;41082;52.822;6.666;2023-02-26T16:17:41;4.80;97.80
55211;DHT22;41082;52.822;6.666;2023-02-26T16:20:14;4.80;98.30
55211;DHT22;41082;52.822;6.666;2023-02-26T16:22:50;4.80;98.20
55211;DHT22;41082;52.822;6.666;2023-02-26T16:25:29;4.70;98.00
55211;DHT22;41082;52.822;6.666;2023-02-26T16:28:01;4.70;97.80
55211;DHT22;41082;52.822;6.666;2023-02-26T16:30:35;4.70;97.60
55211;DHT22;41082;52.822;6.666;2023-02-26T16:33:03;4.60;97.80
55211;DHT22;41082;52.822;6.666;2023-02-26T16:35:37;4.50;98.10
55211;DHT22;41082;52.822;6.666;2023-02-26T16:38:24;4.50;98.40
55211;DHT22;41082;52.822;6.666;2023-02-26T16:41:04;4.50;98.70
55211;DHT22;41082;52.822;6.666;2023-02-26T16:46:01;4.50;98.90
55211;DHT22;41082;52.822;6.666;2023-02-26T16:48:31;4.40;98.60
55211;DHT22;41082;52.822;6.666;2023-02-26T16:51:20;4.30;98.60
55211;DHT22;41082;52.822;6.666;2023-02-26T16:53:56;4.30;98.50
55211;DHT22;41082;52.822;6.666;2023-02-26T16:56:34;4.30;98.70
55211;DHT22;41082;52.822;6.666;2023-02-26T16:59:24;4.30;98.80
55211;DHT22;41082;52.822;6.666;2023-02-26T17:01:51;4.20;99.00
55211;DHT22;41082;52.822;6.666;2023-02-26T17:04:20;4.30;99.30
55211;DHT22;41082;52.822;6.666;2023-02-26T17:06:46;4.20;99.40
55211;DHT22;41082;52.822;6.666;2023-02-26T17:09:43;4.20;99.50
55211;DHT22;41082;52.822;6.666;2023-02-26T17:12:15;4.30;99.70
55211;DHT22;41082;52.822;6.666;2023-02-26T17:14:46;4.20;99.80
55211;DHT22;41082;52.822;6.666;2023-02-26T17:17:13;4.20;99.90
55211;DHT22;41082;52.822;6.666;2023-02-26T17:19:38;4.20;99.90
55211;DHT22;41082;52.822;6.666;2023-02-26T17:22:07;4.20;99.90
55211;DHT22;41082;52.822;6.666;2023-02-26T17:24:37;4.20;99.90
55211;DHT22;41082;52.822;6.666;2023-02-26T17:27:06;4.20;99.90
55211;DHT22;41082;52.822;6.666;2023-02-26T17:29:38;4.10;99.90
55211;DHT22;41082;52.822;6.666;2023-02-26T17:32:20;4.10;99.90
55211;DHT22;41082;52.822;6.666;2023-02-26T17:34:46;4.10;99.90
55211;DHT22;41082;52.822;6.666;2023-02-26T17:37:12;4.10;99.90
55211;DHT22;41082;52.822;6.666;2023-02-26T17:39:39;4.10;99.90
55211;DHT22;41082;52.822;6.666;2023-02-26T17:42:13;4.10;99.90
55211;DHT22;41082;52.822;6.666;2023-02-26T17:44:40;4.10;99.90
55211;DHT22;41082;52.822;6.666;2023-02-26T17:47:11;4.00;99.90
55211;DHT22;41082;52.822;6.666;2023-02-26T17:49:38;4.00;99.90
55211;DHT22;41082;52.822;6.666;2023-02-26T17:52:04;4.00;99.90
55211;DHT22;41082;52.822;6.666;2023-02-26T17:54:30;4.00;99.90
55211;DHT22;41082;52.822;6.666;2023-02-26T17:56:55;4.00;99.90
55211;DHT22;41082;52.822;6.666;2023-02-26T17:59:21;4.00;99.90
55211;DHT22;41082;52.822;6.666;2023-02-26T18:01:46;3.90;99.90
55211;DHT22;41082;52.822;6.666;2023-02-26T18:04:12;3.90;99.90
55211;DHT22;41082;52.822;6.666;2023-02-26T18:06:38;3.90;99.90
55211;DHT22;41082;52.822;6.666;2023-02-26T18:09:04;3.90;99.90
55211;DHT22;41082;52.822;6.666;2023-02-26T18:11:31;3.80;99.90
55211;DHT22;41082;52.822;6.666;2023-02-26T18:13:57;3.80;99.90
55211;DHT22;41082;52.822;6.666;2023-02-26T18:16:28;3.80;99.90
55211;DHT22;41082;52.822;6.666;2023-02-26T18:18:56;3.80;99.90
55211;DHT22;41082;52.822;6.666;2023-02-26T18:21:22;3.70;99.90
55211;DHT22;41082;52.822;6.666;2023-02-26T18:23:50;3.70;99.90
55211;DHT22;41082;52.822;6.666;2023-02-26T18:26:17;3.70;99.90
55211;DHT22;41082;52.822;6.666;2023-02-26T18:28:43;3.70;99.90
55211;DHT22;41082;52.822;6.666;2023-02-26T18:31:10;3.60;99.90
55211;DHT22;41082;52.822;6.666;2023-02-26T18:33:36;3.60;99.90